createdAt,value
2016-12-05T00:00:18.378Z,63.01
2016-12-05T00:01:27.068Z,62.53
2016-12-05T00:02:36.075Z,62.24
2016-12-05T00:03:44.766Z,62.81
2016-12-05T00:04:53.453Z,62.81
2016-12-05T00:06:02.149Z,62.43
2016-12-05T00:07:10.843Z,62.24
2016-12-05T00:08:19.535Z,62.05
2016-12-05T00:09:28.225Z,61.58
2016-12-05T00:10:36.922Z,61.68
2016-12-05T00:11:45.929Z,61.68
2016-12-05T00:12:54.620Z,61.8
2016-12-05T00:14:03.309Z,62.62
2016-12-05T00:15:12.007Z,62.15
2016-12-05T00:16:20.701Z,62.34
2016-12-05T00:17:29.396Z,62.72
2016-12-05T00:18:38.087Z,62.24
2016-12-05T00:19:46.780Z,62.62
2016-12-05T00:20:55.472Z,62.81
2016-12-05T00:22:04.166Z,62.53
2016-12-05T00:23:12.861Z,62.81
2016-12-05T00:24:21.555Z,62.81
2016-12-05T00:25:30.253Z,63.48
2016-12-05T00:26:38.943Z,62.91
2016-12-05T00:27:47.958Z,61.96
2016-12-05T00:28:56.648Z,61.48
2016-12-05T00:30:05.345Z,61.13
2016-12-05T00:31:14.035Z,60.75
2016-12-05T00:32:22.725Z,60.66
2016-12-05T00:33:31.416Z,60.47
2016-12-05T00:34:40.111Z,60.47
2016-12-05T00:35:48.809Z,61.52
2016-12-05T00:36:57.500Z,60.94
2016-12-05T00:38:06.202Z,61.39
2016-12-05T00:39:14.895Z,60.72
2016-12-05T00:40:23.587Z,60.57
2016-12-05T00:41:32.279Z,59.9
2016-12-05T00:42:40.995Z,60.47
2016-12-05T00:43:49.685Z,60.38
2016-12-05T00:44:58.378Z,60.47
2016-12-05T00:46:07.069Z,60.38
2016-12-05T00:47:15.761Z,60.38
2016-12-05T00:48:24.451Z,60.28
2016-12-05T00:49:33.144Z,61.13
2016-12-05T00:50:41.840Z,60.75
2016-12-05T00:51:50.853Z,60.66
2016-12-05T00:52:59.546Z,60.75
2016-12-05T00:54:08.244Z,60.66
2016-12-05T00:55:16.931Z,60.85
2016-12-05T00:56:25.627Z,60.18
2016-12-05T00:57:34.321Z,60.28
2016-12-05T00:58:43.014Z,59.99
2016-12-05T00:59:51.706Z,59.8
2016-12-05T01:01:00.396Z,59.9
2016-12-05T01:02:09.092Z,59.23
2016-12-05T01:03:17.782Z,59.05
2016-12-05T01:04:26.474Z,59.14
2016-12-05T01:05:35.172Z,59.23
2016-12-05T01:06:43.863Z,58.76
2016-12-05T01:07:52.874Z,59.05
2016-12-05T01:09:01.563Z,59.33
2016-12-05T01:10:10.255Z,59.23
2016-12-05T01:11:18.943Z,59.23
2016-12-05T01:12:27.637Z,59.42
2016-12-05T01:13:36.333Z,59.99
2016-12-05T01:14:45.026Z,59.9
2016-12-05T01:15:53.724Z,59.9
2016-12-05T01:17:02.413Z,60.66
2016-12-05T01:18:11.109Z,60.66
2016-12-05T01:19:19.811Z,61.13
2016-12-05T01:20:28.502Z,61.42
2016-12-05T01:21:37.197Z,61.13
2016-12-05T01:22:45.892Z,61.42
2016-12-05T01:23:54.586Z,61.13
2016-12-05T01:25:03.284Z,61.23
2016-12-05T01:26:11.980Z,61.71
2016-12-05T01:27:20.674Z,61.77
2016-12-05T01:28:29.362Z,62.43
2016-12-05T01:29:38.083Z,62.81
2016-12-05T01:30:46.777Z,62.62
2016-12-05T01:31:56.095Z,63.86
2016-12-05T01:33:04.787Z,63.48
2016-12-05T01:34:13.479Z,63.76
2016-12-05T01:35:22.171Z,63.57
2016-12-05T01:36:30.862Z,64.81
2016-12-05T01:37:39.559Z,63.95
2016-12-05T01:38:48.252Z,63.95
2016-12-05T01:39:56.946Z,63.57
2016-12-05T01:41:05.637Z,63.39
2016-12-05T01:42:14.330Z,62.72
2016-12-05T01:43:23.024Z,62.62
2016-12-05T01:44:31.718Z,62.91
2016-12-05T01:45:40.442Z,62.43
2016-12-05T01:46:49.135Z,62.34
2016-12-05T01:47:57.822Z,62.62
2016-12-05T01:49:06.513Z,62.81
2016-12-05T01:50:15.204Z,62.34
2016-12-05T01:51:23.918Z,61.96
2016-12-05T01:52:32.608Z,62.34
2016-12-05T01:53:41.301Z,61.01
2016-12-05T01:54:49.989Z,60.38
2016-12-05T01:55:59.002Z,61.13
2016-12-05T01:57:07.700Z,61.23
2016-12-05T01:58:16.392Z,61.48
2016-12-05T01:59:25.081Z,61.58
2016-12-05T02:00:33.774Z,61.68
2016-12-05T02:01:42.469Z,61.96
2016-12-05T02:02:51.162Z,61.87
2016-12-05T02:03:59.850Z,62.05
2016-12-05T02:05:08.554Z,62.15
2016-12-05T02:06:17.242Z,61.77
2016-12-05T02:07:25.934Z,63.01
2016-12-05T02:08:34.623Z,62.72
2016-12-05T02:09:43.316Z,62.72
2016-12-05T02:10:52.007Z,62.62
2016-12-05T02:12:00.695Z,63.95
2016-12-05T02:13:09.418Z,63.95
2016-12-05T02:14:18.107Z,64.43
2016-12-05T02:15:26.805Z,64.78
2016-12-05T02:16:35.495Z,64.97
2016-12-05T02:17:44.191Z,65.44
2016-12-05T02:18:52.884Z,65.06
2016-12-05T02:20:01.576Z,64.49
2016-12-05T02:21:10.271Z,64.69
2016-12-05T02:22:18.971Z,64.78
2016-12-05T02:23:27.658Z,64.3
2016-12-05T02:24:36.345Z,63.95
2016-12-05T02:25:45.043Z,63.67
2016-12-05T02:26:53.734Z,62.62
2016-12-05T02:28:02.432Z,62.62
2016-12-05T02:29:11.126Z,63.1
2016-12-05T02:30:19.820Z,62.72
2016-12-05T02:31:28.516Z,62.72
2016-12-05T02:32:37.214Z,63.67
2016-12-05T02:33:45.906Z,63.48
2016-12-05T02:34:54.599Z,63.67
2016-12-05T02:36:03.294Z,63.86
2016-12-05T02:37:11.986Z,64.14
2016-12-05T02:38:20.703Z,64.14
2016-12-05T02:39:29.398Z,64.05
2016-12-05T02:40:38.094Z,63.95
2016-12-05T02:41:46.789Z,63.95
2016-12-05T02:42:55.480Z,64.34
2016-12-05T02:44:04.172Z,64.34
2016-12-05T02:45:12.860Z,64.43
2016-12-05T02:46:21.547Z,64.81
2016-12-05T02:47:30.236Z,64.14
2016-12-05T02:48:38.927Z,63.67
2016-12-05T02:49:47.624Z,63.48
2016-12-05T02:50:56.626Z,63.48
2016-12-05T02:52:05.316Z,62.81
2016-12-05T02:53:14.332Z,62.81
2016-12-05T02:54:23.023Z,62.81
2016-12-05T02:55:31.725Z,61.9
2016-12-05T02:56:40.435Z,62.27
2016-12-05T02:57:49.141Z,61.9
2016-12-05T02:58:57.871Z,61.99
2016-12-05T03:00:06.573Z,61.71
2016-12-05T03:01:15.268Z,61.71
2016-12-05T03:02:23.967Z,61.42
2016-12-05T03:03:32.668Z,61.61
2016-12-05T03:04:41.362Z,61.61
2016-12-05T03:05:50.058Z,61.99
2016-12-05T03:06:58.781Z,62.37
2016-12-05T03:08:07.473Z,61.99
2016-12-05T03:09:16.160Z,62.46
2016-12-05T03:10:24.855Z,62.37
2016-12-05T03:11:33.542Z,62.85
2016-12-05T03:12:42.236Z,62.85
2016-12-05T03:13:50.955Z,63.04
2016-12-05T03:14:59.644Z,62.65
2016-12-05T03:16:08.336Z,62.94
2016-12-05T03:17:17.047Z,63.13
2016-12-05T03:18:25.734Z,63.32
2016-12-05T03:19:34.435Z,63.51
2016-12-05T03:20:43.149Z,63.2
2016-12-05T03:21:51.890Z,63.86
2016-12-05T03:23:00.583Z,63.95
2016-12-05T03:24:09.270Z,64.14
2016-12-05T03:25:17.956Z,64.53
2016-12-05T03:26:26.649Z,64.24
2016-12-05T03:27:35.341Z,64.53
2016-12-05T03:28:44.037Z,64.34
2016-12-05T03:29:52.726Z,64.43
2016-12-05T03:31:01.416Z,64.72
2016-12-05T03:32:10.105Z,64.53
2016-12-05T03:33:18.791Z,64.9
2016-12-05T03:34:27.487Z,64.9
2016-12-05T03:35:36.185Z,64.62
2016-12-05T03:36:44.882Z,64.81
2016-12-05T03:37:53.576Z,64.53
2016-12-05T03:39:02.269Z,64.72
2016-12-05T03:40:10.959Z,65.09
2016-12-05T03:41:19.648Z,65.09
2016-12-05T03:42:28.338Z,65.76
2016-12-05T03:43:37.024Z,65.47
2016-12-05T03:44:46.028Z,65.28
2016-12-05T03:45:54.717Z,65.47
2016-12-05T03:47:03.410Z,65
2016-12-05T03:48:12.102Z,65.47
2016-12-05T03:49:20.793Z,65.67
2016-12-05T03:50:29.485Z,65.67
2016-12-05T03:51:38.174Z,65.38
2016-12-05T03:52:46.864Z,65.38
2016-12-05T03:53:55.557Z,65.28
2016-12-05T03:55:04.252Z,65.47
2016-12-05T03:56:12.944Z,64.72
2016-12-05T03:57:21.632Z,64.62
2016-12-05T03:58:30.325Z,65
2016-12-05T03:59:39.016Z,64.62
2016-12-05T04:00:47.712Z,64.81
2016-12-05T04:01:56.409Z,64.43
2016-12-05T04:03:05.105Z,64.9
2016-12-05T04:04:13.797Z,64.9
2016-12-05T04:05:22.488Z,65.57
2016-12-05T04:06:31.183Z,65.47
2016-12-05T04:07:39.874Z,65.19
2016-12-05T04:08:48.571Z,64.72
2016-12-05T04:09:57.265Z,65.57
2016-12-05T04:11:05.956Z,64.9
2016-12-05T04:12:14.651Z,65.28
2016-12-05T04:13:23.341Z,65.47
2016-12-05T04:14:32.028Z,65.28
2016-12-05T04:15:40.720Z,65.73
2016-12-05T04:16:49.411Z,65.54
2016-12-05T04:17:58.096Z,65.57
2016-12-05T04:19:06.786Z,65.67
2016-12-05T04:20:15.477Z,65.63
2016-12-05T04:21:24.169Z,65.16
2016-12-05T04:22:32.863Z,66.14
2016-12-05T04:23:41.555Z,66.2
2016-12-05T04:24:50.242Z,65.92
2016-12-05T04:25:58.929Z,66.39
2016-12-05T04:27:07.624Z,66.3
2016-12-05T04:28:16.320Z,66.58
2016-12-05T04:29:25.013Z,66.3
2016-12-05T04:30:33.707Z,65.63
2016-12-05T04:31:42.400Z,65.28
2016-12-05T04:32:51.096Z,66.05
2016-12-05T04:33:59.786Z,65.73
2016-12-05T04:35:08.477Z,65.92
2016-12-05T04:36:17.193Z,66.39
2016-12-05T04:37:25.915Z,66.77
2016-12-05T04:38:34.608Z,67.06
2016-12-05T04:39:43.295Z,67.63
2016-12-05T04:40:51.990Z,67.72
2016-12-05T04:42:00.684Z,67.82
2016-12-05T04:43:09.368Z,68.01
2016-12-05T04:44:18.380Z,67.72
2016-12-05T04:45:27.067Z,67.34
2016-12-05T04:46:35.764Z,67.63
2016-12-05T04:47:44.451Z,67.15
2016-12-05T04:48:53.138Z,67.53
2016-12-05T04:50:02.155Z,67.63
2016-12-05T04:51:10.849Z,66.77
2016-12-05T04:52:19.539Z,67.82
2016-12-05T04:53:28.322Z,67.25
2016-12-05T04:54:37.009Z,68.1
2016-12-05T04:55:45.699Z,67.59
2016-12-05T04:57:26.498Z,67.91
2016-12-05T04:58:35.194Z,67.88
2016-12-05T04:59:43.889Z,68.26
2016-12-05T05:00:52.586Z,67.97
2016-12-05T05:02:01.285Z,67.97
2016-12-05T05:03:09.973Z,68.26
2016-12-05T05:04:18.663Z,68.01
2016-12-05T05:05:27.352Z,68.1
2016-12-05T05:06:36.043Z,68.01
2016-12-05T05:07:45.076Z,67.59
2016-12-05T05:08:53.766Z,68.16
2016-12-05T05:10:02.453Z,68.64
2016-12-05T05:11:11.147Z,68.92
2016-12-05T05:12:19.833Z,69.4
2016-12-05T05:13:28.558Z,69.49
2016-12-05T05:14:37.249Z,69.21
2016-12-05T05:15:45.937Z,69.49
2016-12-05T05:16:54.623Z,69.68
2016-12-05T05:18:03.627Z,69.68
2016-12-05T05:19:12.317Z,69.4
2016-12-05T05:20:21.003Z,69.68
2016-12-05T05:21:29.689Z,69.87
2016-12-05T05:22:38.384Z,70.25
2016-12-05T05:23:47.100Z,70.06
2016-12-05T05:24:55.794Z,70.54
2016-12-05T05:26:04.483Z,70.54
2016-12-05T05:27:13.180Z,70.54
2016-12-05T05:28:21.875Z,69.96
2016-12-05T05:29:30.569Z,69.68
2016-12-05T05:30:39.268Z,69.78
2016-12-05T05:31:47.960Z,69.87
2016-12-05T05:32:56.652Z,69.68
2016-12-05T05:34:05.342Z,70.44
2016-12-05T05:35:14.034Z,70.82
2016-12-05T05:36:22.728Z,70.54
2016-12-05T05:37:31.734Z,70.35
2016-12-05T05:38:40.427Z,69.68
2016-12-05T05:39:49.116Z,69.96
2016-12-05T05:40:57.807Z,70.63
2016-12-05T05:42:06.502Z,70.06
2016-12-05T05:43:15.198Z,70.35
2016-12-05T05:44:23.885Z,70.92
2016-12-05T05:45:32.575Z,71.3
2016-12-05T05:46:41.286Z,70.63
2016-12-05T05:47:49.969Z,70.92
2016-12-05T05:48:58.663Z,70.54
2016-12-05T05:50:07.675Z,70.73
2016-12-05T05:51:16.371Z,70.82
2016-12-05T05:52:25.065Z,71.58
2016-12-05T05:53:33.755Z,71.64
2016-12-05T05:54:42.452Z,71.92
2016-12-05T05:55:51.148Z,71.92
2016-12-05T05:56:59.833Z,72.4
2016-12-05T05:58:08.522Z,72.21
2016-12-05T05:59:17.209Z,73.16
2016-12-05T06:00:25.978Z,72.78
2016-12-05T06:01:34.675Z,73.25
2016-12-05T06:02:43.365Z,73.07
2016-12-05T06:03:52.123Z,73.25
2016-12-05T06:05:00.817Z,74.11
2016-12-05T06:06:09.819Z,74.2
2016-12-05T06:07:18.517Z,74.07
2016-12-05T06:08:27.235Z,74.64
2016-12-05T06:09:35.927Z,75.59
2016-12-05T06:10:44.620Z,75.87
2016-12-05T06:11:53.306Z,76.25
2016-12-05T06:13:01.996Z,76.44
2016-12-05T06:14:10.680Z,76.21
2016-12-05T06:15:19.371Z,76.59
2016-12-05T06:16:28.064Z,77.35
2016-12-05T06:17:36.758Z,76.68
2016-12-05T06:18:45.451Z,77.16
2016-12-05T06:19:54.483Z,77.64
2016-12-05T06:21:03.175Z,77.35
2016-12-05T06:22:11.870Z,77.64
2016-12-05T06:23:20.554Z,77.45
2016-12-05T06:24:29.249Z,76.78
2016-12-05T06:25:37.943Z,77.64
2016-12-05T06:26:46.665Z,77.45
2016-12-05T06:27:55.353Z,77.35
2016-12-05T06:29:04.048Z,77.64
2016-12-05T06:30:13.089Z,77.16
2016-12-05T06:31:21.778Z,77.73
2016-12-05T06:32:30.472Z,77.54
2016-12-05T06:33:39.164Z,77.45
2016-12-05T06:34:47.856Z,78.2
2016-12-05T06:35:56.549Z,77.54
2016-12-05T06:37:05.243Z,77.54
2016-12-05T06:38:13.928Z,77.64
2016-12-05T06:39:22.624Z,77.25
2016-12-05T06:40:31.311Z,77.64
2016-12-05T06:41:40.035Z,78.3
2016-12-05T06:42:48.723Z,78.11
2016-12-05T06:43:57.408Z,78.2
2016-12-05T06:45:06.107Z,78.02
2016-12-05T06:46:14.793Z,78.2
2016-12-05T06:47:23.477Z,77.64
2016-12-05T06:48:32.485Z,77.83
2016-12-05T06:49:41.178Z,78.67
2016-12-05T06:50:49.861Z,78.2
2016-12-05T06:51:58.861Z,78.49
2016-12-05T06:53:07.553Z,77.73
2016-12-05T06:54:16.243Z,78.58
2016-12-05T06:55:24.934Z,78.67
2016-12-05T06:56:33.625Z,78.39
2016-12-05T06:57:42.318Z,77.54
2016-12-05T06:58:51.011Z,78.39
2016-12-05T06:59:59.695Z,77.83
2016-12-05T07:01:08.384Z,78.2
2016-12-05T07:02:17.077Z,77.83
2016-12-05T07:03:25.763Z,77.45
2016-12-05T07:04:34.461Z,77.83
2016-12-05T07:05:43.153Z,78.2
2016-12-05T07:06:51.840Z,78.3
2016-12-05T07:08:00.527Z,77.45
2016-12-05T07:09:09.224Z,77.25
2016-12-05T07:10:17.949Z,77.25
2016-12-05T07:11:26.633Z,76.87
2016-12-05T07:12:35.322Z,76.54
2016-12-05T07:13:44.010Z,76.82
2016-12-05T07:14:52.699Z,76.44
2016-12-05T07:16:01.389Z,76.54
2016-12-05T07:17:10.076Z,76.63
2016-12-05T07:18:18.764Z,76.92
2016-12-05T07:19:27.474Z,76.73
2016-12-05T07:20:36.161Z,76.44
2016-12-05T07:21:44.862Z,76.63
2016-12-05T07:22:53.548Z,76.73
2016-12-05T07:24:02.246Z,76.63
2016-12-05T07:25:11.269Z,77.29
2016-12-05T07:26:19.979Z,76.34
2016-12-05T07:27:28.673Z,76.44
2016-12-05T07:28:37.380Z,76.73
2016-12-05T07:29:46.066Z,76.82
2016-12-05T07:30:54.756Z,76.63
2016-12-05T07:32:03.442Z,76.44
2016-12-05T07:33:12.139Z,75.78
2016-12-05T07:34:20.835Z,76.44
2016-12-05T07:35:29.527Z,76.44
2016-12-05T07:36:38.223Z,76.15
2016-12-05T07:37:46.920Z,76.54
2016-12-05T07:38:55.608Z,76.73
2016-12-05T07:40:04.300Z,75.68
2016-12-05T07:41:12.989Z,75.87
2016-12-05T07:42:21.678Z,75.96
2016-12-05T07:43:30.366Z,75.96
2016-12-05T07:44:39.079Z,76.06
2016-12-05T07:45:47.767Z,75.78
2016-12-05T07:46:56.455Z,76.06
2016-12-05T07:48:05.140Z,75.31
2016-12-05T07:49:13.823Z,75.21
2016-12-05T07:50:22.590Z,74.83
2016-12-05T07:51:31.277Z,74.35
2016-12-05T07:52:39.981Z,73.72
2016-12-05T07:53:48.673Z,73.72
2016-12-05T07:54:57.361Z,73.72
2016-12-05T07:56:06.051Z,73.35
2016-12-05T07:57:14.746Z,73.07
2016-12-05T07:58:23.746Z,73.16
2016-12-05T07:59:32.436Z,73.54
2016-12-05T08:00:41.134Z,72.49
2016-12-05T08:01:49.829Z,71.45
2016-12-05T08:02:58.552Z,70.78
2016-12-05T08:04:07.245Z,69.96
2016-12-05T08:05:15.930Z,69.3
2016-12-05T08:06:24.618Z,68.64
2016-12-05T08:07:33.310Z,67.59
2016-12-05T08:08:42.001Z,67.63
2016-12-05T08:09:50.696Z,66.77
2016-12-05T08:10:59.392Z,66.58
2016-12-05T08:12:08.082Z,66.3
2016-12-05T08:13:16.774Z,66.49
2016-12-05T08:14:25.480Z,66.67
2016-12-05T08:15:34.174Z,66.87
2016-12-05T08:16:42.861Z,66.39
2016-12-05T08:17:51.557Z,66.96
2016-12-05T08:19:00.244Z,67.25
2016-12-05T08:20:08.932Z,67.25
2016-12-05T08:21:17.619Z,66.96
2016-12-05T08:22:26.311Z,66.83
2016-12-05T08:23:35.002Z,66.67
2016-12-05T08:24:43.692Z,66.77
2016-12-05T08:25:52.384Z,66.77
2016-12-05T08:27:01.083Z,66.49
2016-12-05T08:28:09.778Z,66.39
2016-12-05T08:29:18.471Z,66.67
2016-12-05T08:30:27.168Z,66.39
2016-12-05T08:31:35.864Z,66.01
2016-12-05T08:32:44.551Z,66.2
2016-12-05T08:33:53.246Z,66.11
2016-12-05T08:35:01.934Z,65.82
2016-12-05T08:36:10.635Z,65.73
2016-12-05T08:37:19.325Z,65.92
2016-12-05T08:38:28.012Z,66.39
2016-12-05T08:39:36.702Z,65.82
2016-12-05T08:40:45.396Z,65.73
2016-12-05T08:41:54.089Z,65.25
2016-12-05T08:43:03.425Z,65.25
2016-12-05T08:44:12.124Z,65.25
2016-12-05T08:45:20.816Z,65.44
2016-12-05T08:46:29.511Z,64.78
2016-12-05T08:47:38.228Z,65.35
2016-12-05T08:48:46.917Z,65.25
2016-12-05T08:49:55.604Z,65.35
2016-12-05T08:51:04.289Z,65.82
2016-12-05T08:52:12.984Z,65.44
2016-12-05T08:53:21.687Z,64.69
2016-12-05T08:54:30.687Z,64.78
2016-12-05T08:55:39.383Z,64.4
2016-12-05T08:56:48.071Z,64.62
2016-12-05T08:57:56.760Z,64.34
2016-12-05T08:59:05.480Z,64.11
2016-12-05T09:00:14.488Z,64.14
2016-12-05T09:01:23.177Z,64.24
2016-12-05T09:02:31.866Z,64.3
2016-12-05T09:03:40.559Z,64.05
2016-12-05T09:04:49.247Z,64.3
2016-12-05T09:05:57.939Z,63.95
2016-12-05T09:07:06.625Z,64.43
2016-12-05T09:08:15.320Z,64.05
2016-12-05T09:09:24.011Z,64.14
2016-12-05T09:10:33.029Z,63.57
2016-12-05T09:11:41.719Z,63.67
2016-12-05T09:12:50.414Z,63.95
2016-12-05T09:13:59.108Z,63.86
2016-12-05T09:15:08.117Z,63.76
2016-12-05T09:16:16.806Z,63.48
2016-12-05T09:17:25.497Z,63.57
2016-12-05T09:18:34.186Z,62.81
2016-12-05T09:19:42.879Z,62.81
2016-12-05T09:20:51.621Z,62.81
2016-12-05T09:22:00.343Z,62.34
2016-12-05T09:23:09.088Z,63.01
2016-12-05T09:24:17.782Z,62.62
2016-12-05T09:25:26.478Z,62.91
2016-12-05T09:26:35.171Z,63.57
2016-12-05T09:27:43.864Z,63.57
2016-12-05T09:28:52.551Z,63.29
2016-12-05T09:30:01.241Z,63.86
2016-12-05T09:31:09.934Z,63.48
2016-12-05T09:32:18.629Z,64.14
2016-12-05T09:33:27.324Z,64.62
2016-12-05T09:34:36.012Z,64.43
2016-12-05T09:35:44.706Z,64.3
2016-12-05T09:36:53.709Z,65.44
2016-12-05T09:38:02.403Z,66.01
2016-12-05T09:39:11.095Z,66.96
2016-12-05T09:40:19.789Z,67.25
2016-12-05T09:41:28.479Z,67.25
2016-12-05T09:42:37.171Z,67.72
2016-12-05T09:43:45.862Z,67.82
2016-12-05T09:44:54.550Z,68.01
2016-12-05T09:46:03.240Z,68.48
2016-12-05T09:47:11.934Z,67.82
2016-12-05T09:48:20.625Z,67.15
2016-12-05T09:49:29.315Z,67.15
2016-12-05T09:50:38.003Z,67.25
2016-12-05T09:51:46.720Z,66.87
2016-12-05T09:52:55.724Z,66.01
2016-12-05T09:54:04.416Z,65.16
2016-12-05T09:55:13.108Z,65.63
2016-12-05T09:56:21.800Z,65.63
2016-12-05T09:57:30.494Z,65.25
2016-12-05T09:58:39.183Z,65.06
2016-12-05T09:59:47.881Z,64.78
2016-12-05T10:00:56.574Z,65.35
2016-12-05T10:02:05.266Z,64.97
2016-12-05T10:03:13.955Z,65.44
2016-12-05T10:04:22.644Z,65.25
2016-12-05T10:05:31.333Z,65.54
2016-12-05T10:06:40.031Z,64.87
2016-12-05T10:07:48.722Z,65.54
2016-12-05T10:08:57.415Z,65.63
2016-12-05T10:10:06.100Z,65.44
2016-12-05T10:11:14.795Z,65.92
2016-12-05T10:12:23.483Z,65.82
2016-12-05T10:13:32.180Z,66.3
2016-12-05T10:14:40.883Z,66.11
2016-12-05T10:15:49.576Z,66.77
2016-12-05T10:16:58.261Z,67.06
2016-12-05T10:18:06.946Z,67.25
2016-12-05T10:19:15.635Z,67.25
2016-12-05T10:20:24.325Z,67.4
2016-12-05T10:21:33.012Z,67.79
2016-12-05T10:22:41.706Z,68.26
2016-12-05T10:23:50.401Z,68.26
2016-12-05T10:24:59.090Z,68.73
2016-12-05T10:26:07.783Z,68.64
2016-12-05T10:27:16.466Z,68.64
2016-12-05T10:28:25.155Z,68.92
2016-12-05T10:29:33.842Z,69.17
2016-12-05T10:30:42.571Z,69.49
2016-12-05T10:31:51.269Z,69.46
2016-12-05T10:32:59.962Z,69.59
2016-12-05T10:34:08.660Z,69.4
2016-12-05T10:35:17.346Z,69.59
2016-12-05T10:36:26.035Z,69.55
2016-12-05T10:37:34.721Z,69.46
2016-12-05T10:38:43.409Z,69.55
2016-12-05T10:39:52.101Z,69.84
2016-12-05T10:41:00.795Z,69.84
2016-12-05T10:42:09.477Z,69.65
2016-12-05T10:43:18.169Z,69.46
2016-12-05T10:44:26.851Z,69.55
2016-12-05T10:45:35.537Z,69.4
2016-12-05T10:46:44.226Z,69.02
2016-12-05T10:47:52.917Z,69.08
2016-12-05T10:49:01.603Z,69.3
2016-12-05T10:50:10.294Z,69.49
2016-12-05T10:51:18.980Z,69.59
2016-12-05T10:52:27.989Z,69.4
2016-12-05T10:53:36.690Z,68.83
2016-12-05T10:54:45.411Z,68.83
2016-12-05T10:55:54.093Z,68.07
2016-12-05T10:57:02.780Z,68.16
2016-12-05T10:58:11.465Z,67.97
2016-12-05T10:59:20.147Z,67.31
2016-12-05T11:00:28.833Z,67.97
2016-12-05T11:01:37.522Z,67.88
2016-12-05T11:02:46.238Z,68.07
2016-12-05T11:03:55.239Z,67.69
2016-12-05T11:05:03.951Z,67.21
2016-12-05T11:06:12.716Z,67.4
2016-12-05T11:07:21.401Z,67.79
2016-12-05T11:08:30.092Z,67.69
2016-12-05T11:09:38.781Z,67.88
2016-12-05T11:10:47.477Z,67.59
2016-12-05T11:11:56.497Z,67.4
2016-12-05T11:13:05.560Z,67.12
2016-12-05T11:14:14.576Z,67.12
2016-12-05T11:15:23.266Z,67.79
2016-12-05T11:16:32.267Z,67.79
2016-12-05T11:17:40.957Z,68.73
2016-12-05T11:18:49.647Z,69.68
2016-12-05T11:19:58.339Z,70.63
2016-12-05T11:21:07.063Z,70.63
2016-12-05T11:22:15.750Z,70.92
2016-12-05T11:23:24.439Z,71.01
2016-12-05T11:24:33.131Z,70.54
2016-12-05T11:25:41.835Z,70.35
2016-12-05T11:26:50.519Z,69.4
2016-12-05T11:27:59.208Z,70.12
2016-12-05T11:29:08.225Z,70.4
2016-12-05T11:30:16.944Z,70.88
2016-12-05T11:31:25.633Z,71.36
2016-12-05T11:32:34.326Z,71.45
2016-12-05T11:33:43.064Z,71.64
2016-12-05T11:34:51.752Z,71.36
2016-12-05T11:36:00.441Z,71.64
2016-12-05T11:37:09.133Z,71.83
2016-12-05T11:38:17.828Z,72.3
2016-12-05T11:39:26.520Z,72.59
2016-12-05T11:40:35.223Z,73.16
2016-12-05T11:41:43.910Z,72.21
2016-12-05T11:42:52.606Z,72.4
2016-12-05T11:44:01.299Z,72.21
2016-12-05T11:45:10.315Z,72.78
2016-12-05T11:46:19.051Z,73.25
2016-12-05T11:47:27.745Z,73.07
2016-12-05T11:48:36.433Z,73.35
2016-12-05T11:49:45.131Z,73.25
2016-12-05T11:50:53.820Z,73.44
2016-12-05T11:52:02.541Z,73.82
2016-12-05T11:53:11.233Z,73.82
2016-12-05T11:54:20.242Z,73.72
2016-12-05T11:55:28.929Z,73.35
2016-12-05T11:56:37.657Z,72.88
2016-12-05T11:57:46.348Z,73.07
2016-12-05T11:58:55.040Z,73.25
2016-12-05T12:00:03.731Z,73.35
2016-12-05T12:01:12.477Z,73.54
2016-12-05T12:02:21.165Z,73.35
2016-12-05T12:03:29.856Z,72.68
2016-12-05T12:04:38.549Z,72.49
2016-12-05T12:05:47.237Z,72.3
2016-12-05T12:06:55.981Z,72.3
2016-12-05T12:08:04.980Z,72.3
2016-12-05T12:09:13.673Z,72.21
2016-12-05T12:10:22.364Z,72.78
2016-12-05T12:11:31.055Z,73.07
2016-12-05T12:12:39.875Z,72.49
2016-12-05T12:13:48.570Z,73.16
2016-12-05T12:14:57.257Z,73.16
2016-12-05T12:16:05.948Z,73.44
2016-12-05T12:17:14.641Z,73.44
2016-12-05T12:18:23.331Z,73.54
2016-12-05T12:19:32.020Z,73.07
2016-12-05T12:20:40.710Z,73.72
2016-12-05T12:21:49.403Z,74.73
2016-12-05T12:22:58.100Z,75.59
2016-12-05T12:24:06.789Z,75.31
2016-12-05T12:25:15.474Z,74.92
2016-12-05T12:26:24.164Z,74.64
2016-12-05T12:27:32.870Z,74.73
2016-12-05T12:28:41.884Z,75.31
2016-12-05T12:29:50.568Z,76.06
2016-12-05T12:30:59.260Z,75.78
2016-12-05T12:32:07.976Z,76.15
2016-12-05T12:33:16.662Z,75.59
2016-12-05T12:34:25.669Z,75.31
2016-12-05T12:35:34.362Z,75.68
2016-12-05T12:36:43.056Z,76.34
2016-12-05T12:37:51.755Z,76.15
2016-12-05T12:39:00.445Z,76.63
2016-12-05T12:40:09.137Z,76.73
2016-12-05T12:41:18.148Z,77.25
2016-12-05T12:42:26.834Z,78.39
2016-12-05T12:43:35.528Z,78.3
2016-12-05T12:44:44.218Z,77.73
2016-12-05T12:45:52.906Z,78.2
2016-12-05T12:47:01.600Z,77.73
2016-12-05T12:48:10.291Z,78.58
2016-12-05T12:49:18.983Z,78.67
2016-12-05T12:50:27.674Z,78.77
2016-12-05T12:51:36.365Z,79.44
2016-12-05T12:52:45.057Z,79.34
2016-12-05T12:53:53.754Z,79.82
2016-12-05T12:55:02.446Z,79.63
2016-12-05T12:56:11.138Z,79.72
2016-12-05T12:57:19.825Z,80.1
2016-12-05T12:58:28.514Z,80
2016-12-05T12:59:37.199Z,80.38
2016-12-05T13:00:45.913Z,80.29
2016-12-05T13:01:54.614Z,79.72
2016-12-05T13:03:03.303Z,79.53
2016-12-05T13:04:11.997Z,79.53
2016-12-05T13:05:20.696Z,79.82
2016-12-05T13:06:29.406Z,80.1
2016-12-05T13:07:38.095Z,80.06
2016-12-05T13:08:46.785Z,80.15
2016-12-05T13:09:55.473Z,80.34
2016-12-05T13:11:04.162Z,80.53
2016-12-05T13:12:44.954Z,81.38
2016-12-05T13:13:53.663Z,81.48
2016-12-05T13:15:02.347Z,81.48
2016-12-05T13:16:11.037Z,81.48
2016-12-05T13:17:19.725Z,81.48
2016-12-05T13:18:28.417Z,81.67
2016-12-05T13:19:37.419Z,81.48
2016-12-05T13:20:46.107Z,81.67
2016-12-05T13:21:54.798Z,81.38
2016-12-05T13:23:03.487Z,81.2
2016-12-05T13:24:12.180Z,81.48
2016-12-05T13:25:20.873Z,81.48
2016-12-05T13:26:29.559Z,81.1
2016-12-05T13:27:38.244Z,82.14
2016-12-05T13:28:46.932Z,82.62
2016-12-05T13:29:55.617Z,82.52
2016-12-05T13:31:04.309Z,83.33
2016-12-05T13:32:12.993Z,82.67
2016-12-05T13:33:22.013Z,83.14
2016-12-05T13:34:30.697Z,82.86
2016-12-05T13:35:39.385Z,84
2016-12-05T13:36:48.075Z,84
2016-12-05T13:37:56.757Z,84.28
2016-12-05T13:39:05.444Z,83.81
2016-12-05T13:40:14.141Z,83.9
2016-12-05T13:41:22.896Z,84.38
2016-12-05T13:42:31.586Z,84.94
2016-12-05T13:43:40.271Z,84.56
2016-12-05T13:44:48.957Z,84.09
2016-12-05T13:45:57.639Z,84.47
2016-12-05T13:47:06.331Z,84.38
2016-12-05T13:48:15.052Z,84.28
2016-12-05T13:49:23.740Z,83.9
2016-12-05T13:50:32.426Z,84.09
2016-12-05T13:51:41.122Z,83.62
2016-12-05T13:52:49.816Z,84.09
2016-12-05T13:53:58.499Z,84.66
2016-12-05T13:55:07.194Z,84.75
2016-12-05T13:56:15.882Z,84.85
2016-12-05T13:57:24.567Z,84.75
2016-12-05T13:58:33.258Z,84.66
2016-12-05T13:59:41.943Z,85.13
2016-12-05T14:00:50.635Z,84.94
2016-12-05T14:01:59.668Z,84.75
2016-12-05T14:03:08.354Z,84.56
2016-12-05T14:04:17.038Z,85.32
2016-12-05T14:05:25.724Z,84.94
2016-12-05T14:06:34.489Z,84.56
2016-12-05T14:07:43.175Z,84.85
2016-12-05T14:08:51.861Z,84.28
2016-12-05T14:10:00.551Z,84.09
2016-12-05T14:11:09.244Z,84.56
2016-12-05T14:12:18.291Z,85.32
2016-12-05T14:13:26.972Z,85.04
2016-12-05T14:14:35.677Z,84.75
2016-12-05T14:15:44.368Z,85.23
2016-12-05T14:16:53.051Z,85.32
2016-12-05T14:18:01.791Z,85.32
2016-12-05T14:19:10.513Z,84.66
2016-12-05T14:20:19.512Z,85.32
2016-12-05T14:21:28.200Z,84.94
2016-12-05T14:22:36.883Z,85.7
2016-12-05T14:23:45.667Z,85.32
2016-12-05T14:24:54.353Z,85.13
2016-12-05T14:26:03.040Z,85.61
2016-12-05T14:27:11.724Z,85.32
2016-12-05T14:28:20.432Z,85.61
2016-12-05T14:29:29.118Z,85.04
2016-12-05T14:30:37.802Z,85.51
2016-12-05T14:31:46.484Z,85.42
2016-12-05T14:32:55.168Z,85.7
2016-12-05T14:34:03.886Z,85.32
2016-12-05T14:35:12.574Z,85.13
2016-12-05T14:36:21.337Z,85.61
2016-12-05T14:37:30.193Z,85.7
2016-12-05T14:38:38.877Z,85.61
2016-12-05T14:39:47.557Z,84.56
2016-12-05T14:40:56.264Z,83.14
2016-12-05T14:42:04.955Z,84.09
2016-12-05T14:43:13.639Z,84.19
2016-12-05T14:44:22.325Z,84.85
2016-12-05T14:45:31.001Z,84.47
2016-12-05T14:46:39.682Z,84.28
2016-12-05T14:47:48.369Z,84.47
2016-12-05T14:48:57.061Z,84.75